Time,TemperatureF,DewpointF,PressureIn,WindDirection,WindDirectionDegrees,WindSpeedMPH,WindSpeedGustMPH,Humidity,HourlyPrecipIn,Conditions,Clouds,dailyrainin,SoftwareType,DateUTC
2013-02-02 00:09:00,16.5,-5.2,0.00,South,187,0.0,6.3,37,0.00,,---,0.00,VWS V14.00,2013-02-02 05:09:00,
2013-02-02 00:19:00,16.7,-5.0,0.00,SSW,205,0.0,4.9,37,0.00,,---,0.00,VWS V14.00,2013-02-02 05:19:00,
2013-02-02 00:29:00,16.7,-5.0,0.00,SW,230,0.0,5.4,37,0.00,,---,0.00,VWS V14.00,2013-02-02 05:29:00,
2013-02-02 00:39:00,16.9,-4.9,0.00,SSW,192,0.0,6.3,37,0.00,,---,0.00,VWS V14.00,2013-02-02 05:39:00,
2013-02-02 00:49:00,16.9,-4.9,0.00,SSW,203,0.0,4.0,37,0.00,,---,0.00,VWS V14.00,2013-02-02 05:49:00,
2013-02-02 00:59:00,17.1,-4.7,0.00,South,190,3.1,6.3,37,0.00,,---,0.00,VWS V14.00,2013-02-02 05:59:00,
2013-02-02 01:09:00,16.9,-4.9,0.00,South,184,0.0,7.6,37,0.00,,---,0.00,VWS V14.00,2013-02-02 06:09:00,
2013-02-02 01:19:00,16.9,-4.3,0.00,South,173,0.0,6.3,38,0.00,,---,0.00,VWS V14.00,2013-02-02 06:19:00,
2013-02-02 01:29:00,17.1,-4.2,0.00,South,183,0.0,3.6,38,0.00,,---,0.00,VWS V14.00,2013-02-02 06:29:00,
2013-02-02 01:39:00,17.2,-4.6,0.00,SSW,206,0.0,8.1,37,0.00,,---,0.00,VWS V14.00,2013-02-02 06:39:00,
2013-02-02 01:49:00,17.4,-4.4,0.00,SSW,203,5.4,7.2,37,0.00,,---,0.00,VWS V14.00,2013-02-02 06:49:00,
2013-02-02 01:59:00,17.6,-4.2,0.00,SSW,210,3.6,7.2,37,0.00,,---,0.00,VWS V14.00,2013-02-02 06:59:00,
2013-02-02 02:09:00,17.8,-4.6,0.00,SW,218,0.0,6.3,36,0.00,,---,0.00,VWS V14.00,2013-02-02 07:09:00,
2013-02-02 02:19:00,18.0,-4.5,0.00,South,180,0.0,5.4,36,0.00,,---,0.00,VWS V14.00,2013-02-02 07:19:00,
2013-02-02 02:29:00,18.0,-3.9,0.00,SSW,205,0.0,3.1,37,0.00,,---,0.00,VWS V14.00,2013-02-02 07:29:00,
2013-02-02 02:39:00,18.1,-3.7,0.00,SSW,195,3.6,8.1,37,0.00,,---,0.00,VWS V14.00,2013-02-02 07:39:00,
2013-02-02 02:49:00,18.3,-3.6,0.00,SSW,213,0.0,5.8,37,0.00,,---,0.00,VWS V14.00,2013-02-02 07:49:00,
2013-02-02 02:59:00,18.5,-3.4,0.00,West,261,0.0,4.0,37,0.00,,---,0.00,VWS V14.00,2013-02-02 07:59:00,
2013-02-02 03:09:00,18.3,-3.0,0.00,SSW,199,0.0,5.4,38,0.00,,---,0.00,VWS V14.00,2013-02-02 08:09:00,
2013-02-02 03:19:00,18.5,-1.8,0.00,SSW,197,2.7,7.2,40,0.00,,---,0.00,VWS V14.00,2013-02-02 08:19:00,
2013-02-02 03:29:00,18.5,-0.3,0.00,South,183,4.0,5.8,43,0.00,,---,0.00,VWS V14.00,2013-02-02 08:29:00,
2013-02-02 03:39:00,18.5,-0.3,0.00,SSW,198,0.0,5.8,43,0.00,,---,0.00,VWS V14.00,2013-02-02 08:39:00,
2013-02-02 03:49:00,18.5,0.2,0.00,SSW,200,0.0,6.3,44,0.00,,---,0.00,VWS V14.00,2013-02-02 08:49:00,
2013-02-02 03:59:00,18.3,0.6,0.00,SW,216,2.7,4.5,45,0.00,,---,0.00,VWS V14.00,2013-02-02 08:59:00,
2013-02-02 04:09:00,18.3,0.6,0.00,SW,224,0.0,5.4,45,0.00,,---,0.00,VWS V14.00,2013-02-02 09:09:00,
2013-02-02 04:19:00,18.3,1.0,0.00,South,172,0.0,4.0,46,0.00,,---,0.00,VWS V14.00,2013-02-02 09:19:00,
2013-02-02 04:29:00,18.3,1.5,0.00,SSE,155,0.0,2.7,47,0.00,,---,0.00,VWS V14.00,2013-02-02 09:29:00,
2013-02-02 04:39:00,18.1,1.3,0.00,SSE,155,0.0,0.0,47,0.00,,---,0.00,VWS V14.00,2013-02-02 09:39:00,
2013-02-02 04:49:00,18.3,1.5,0.00,SSE,155,0.0,0.0,47,0.00,,---,0.00,VWS V14.00,2013-02-02 09:49:00,
2013-02-02 04:59:00,18.5,1.6,0.00,SSE,155,0.0,2.2,47,0.00,,---,0.00,VWS V14.00,2013-02-02 09:59:00,
2013-02-02 05:09:00,18.7,1.8,0.00,SSE,155,0.0,0.0,47,0.00,,---,0.00,VWS V14.00,2013-02-02 10:09:00,
2013-02-02 05:19:00,18.7,2.3,0.00,SSE,149,0.0,0.0,48,0.00,,---,0.00,VWS V14.00,2013-02-02 10:19:00,
2013-02-02 05:29:00,18.7,2.3,0.00,South,178,0.0,4.5,48,0.00,,---,0.00,VWS V14.00,2013-02-02 10:29:00,
2013-02-02 05:39:00,18.7,2.7,0.00,South,181,0.0,0.0,49,0.00,,---,0.00,VWS V14.00,2013-02-02 10:39:00,
2013-02-02 05:49:00,18.7,3.1,0.00,SSE,165,0.0,0.0,50,0.00,,---,0.00,VWS V14.00,2013-02-02 10:49:00,
2013-02-02 05:59:00,18.7,3.1,0.00,SSE,166,0.0,0.0,50,0.00,,---,0.00,VWS V14.00,2013-02-02 10:59:00,
2013-02-02 06:09:00,19.0,3.9,0.00,SSE,163,0.0,0.0,51,0.00,,---,0.00,VWS V14.00,2013-02-02 11:09:00,
2013-02-02 06:19:00,19.0,4.3,0.00,SSE,167,0.0,0.0,52,0.00,,---,0.00,VWS V14.00,2013-02-02 11:19:00,
2013-02-02 06:29:00,19.2,4.5,0.00,SSW,197,0.0,3.6,52,0.00,,---,0.00,VWS V14.00,2013-02-02 11:29:00,
2013-02-02 06:39:00,19.4,5.1,0.00,SSW,194,0.0,4.0,53,0.00,,---,0.00,VWS V14.00,2013-02-02 11:39:00,
2013-02-02 06:49:00,19.6,4.8,0.00,SSW,202,0.0,0.0,52,0.00,,---,0.00,VWS V14.00,2013-02-02 11:49:00,
2013-02-02 06:59:00,19.4,5.1,0.00,SSE,161,0.0,2.2,53,0.00,,---,0.00,VWS V14.00,2013-02-02 11:59:00,
2013-02-02 07:09:00,19.4,5.1,0.00,SSW,211,0.0,5.4,53,0.00,,---,0.00,VWS V14.00,2013-02-02 12:09:00,
2013-02-02 07:19:00,19.6,5.2,0.00,SSE,167,0.0,5.8,53,0.00,,---,0.00,VWS V14.00,2013-02-02 12:19:00,
2013-02-02 07:29:00,19.8,5.4,0.00,SW,214,0.0,5.4,53,0.00,,---,0.00,VWS V14.00,2013-02-02 12:29:00,
2013-02-02 07:39:00,19.8,5.4,0.00,South,169,0.0,6.3,53,0.00,,---,0.00,VWS V14.00,2013-02-02 12:39:00,
2013-02-02 07:49:00,20.1,5.7,0.00,South,178,0.0,0.0,53,0.00,,---,0.00,VWS V14.00,2013-02-02 12:49:00,
2013-02-02 07:59:00,20.5,6.1,0.00,SSW,196,0.0,4.9,53,0.00,,---,0.00,VWS V14.00,2013-02-02 12:59:00,
2013-02-02 08:09:00,20.8,6.4,0.00,SSW,195,0.0,8.3,53,0.00,,---,0.00,VWS V14.00,2013-02-02 13:09:00,
2013-02-02 08:19:00,21.2,6.8,0.00,SSW,194,0.0,5.8,53,0.00,,---,0.00,VWS V14.00,2013-02-02 13:19:00,
2013-02-02 08:29:00,21.6,6.7,0.00,SSW,212,0.0,4.0,52,0.00,,---,0.00,VWS V14.00,2013-02-02 13:29:00,
2013-02-02 08:39:00,22.3,6.9,0.00,SSW,213,0.0,4.9,51,0.00,,---,0.00,VWS V14.00,2013-02-02 13:39:00,
2013-02-02 08:49:00,23.2,6.9,0.00,WSW,256,0.0,0.0,49,0.00,,---,0.00,VWS V14.00,2013-02-02 13:49:00,
2013-02-02 08:59:00,23.7,5.5,0.00,SSW,209,0.0,5.4,45,0.00,,---,0.00,VWS V14.00,2013-02-02 13:59:00,
2013-02-02 09:09:00,24.1,5.3,0.00,SSW,208,0.0,6.7,44,0.00,,---,0.00,VWS V14.00,2013-02-02 14:09:00,
2013-02-02 09:19:00,24.4,5.2,0.00,SSW,196,2.7,5.8,43,0.00,,---,0.00,VWS V14.00,2013-02-02 14:19:00,
2013-02-02 09:29:00,25.2,5.3,0.00,SW,218,0.0,6.3,42,0.00,,---,0.00,VWS V14.00,2013-02-02 14:29:00,
2013-02-02 09:39:00,25.3,5.5,0.00,SSW,212,0.0,3.6,42,0.00,,---,0.00,VWS V14.00,2013-02-02 14:39:00,
2013-02-02 09:49:00,25.7,5.8,0.00,SSW,211,3.1,7.6,42,0.00,,---,0.00,VWS V14.00,2013-02-02 14:49:00,
2013-02-02 09:59:00,27.0,5.3,0.00,SSW,212,4.9,6.7,39,0.00,,---,0.00,VWS V14.00,2013-02-02 14:59:00,
2013-02-02 10:09:00,27.9,5.0,0.00,SW,235,0.0,5.4,37,0.00,,---,0.00,VWS V14.00,2013-02-02 15:09:00,
2013-02-02 10:19:00,28.2,4.7,0.00,SW,232,0.0,3.6,36,0.00,,---,0.00,VWS V14.00,2013-02-02 15:19:00,
2013-02-02 10:29:00,28.6,4.4,0.00,SSW,206,2.7,8.1,35,0.00,,---,0.00,VWS V14.00,2013-02-02 15:29:00,
2013-02-02 10:39:00,29.7,4.7,0.00,SSW,204,2.2,7.6,34,0.00,,---,0.00,VWS V14.00,2013-02-02 15:39:00,
2013-02-02 10:49:00,29.5,4.6,0.00,SSW,198,0.0,6.3,34,0.00,,---,0.00,VWS V14.00,2013-02-02 15:49:00,
2013-02-02 10:59:00,29.7,4.1,0.00,SSW,204,0.0,6.3,33,0.00,,---,0.00,VWS V14.00,2013-02-02 15:59:00,
2013-02-02 11:09:00,30.9,5.2,0.00,West,261,0.0,8.7,33,0.00,,---,0.00,VWS V14.00,2013-02-02 16:09:00,
2013-02-02 11:19:00,32.7,6.1,0.00,SSW,213,2.7,9.6,32,0.00,,---,0.00,VWS V14.00,2013-02-02 16:19:00,
2013-02-02 11:29:00,32.0,5.5,0.00,SW,222,0.0,6.3,32,0.00,,---,0.00,VWS V14.00,2013-02-02 16:29:00,
2013-02-02 11:39:00,32.2,5.0,0.00,SSW,204,3.1,6.3,31,0.00,,---,0.00,VWS V14.00,2013-02-02 16:39:00,
2013-02-02 11:49:00,33.3,5.9,0.00,SSW,197,0.0,4.0,31,0.00,,---,0.00,VWS V14.00,2013-02-02 16:49:00,
2013-02-02 11:59:00,33.6,6.2,0.00,SW,229,0.0,4.9,31,0.00,,---,0.00,VWS V14.00,2013-02-02 16:59:00,
2013-02-02 12:09:00,34.3,6.9,0.00,NW,318,0.0,7.2,31,0.00,,---,0.00,VWS V14.00,2013-02-02 17:09:00,
2013-02-02 12:19:00,34.0,6.5,0.00,WNW,290,5.4,8.7,31,0.00,,---,0.00,VWS V14.00,2013-02-02 17:19:00,
2013-02-02 12:29:00,32.4,5.1,0.00,SSW,204,3.1,9.6,31,0.00,,---,0.00,VWS V14.00,2013-02-02 17:29:00,
2013-02-02 12:39:00,31.8,5.3,0.00,NW,314,0.0,3.1,32,0.00,,---,0.00,VWS V14.00,2013-02-02 17:39:00,
2013-02-02 12:49:00,32.2,5.7,0.00,West,276,2.2,6.3,32,0.00,,---,0.00,VWS V14.00,2013-02-02 17:49:00,
2013-02-02 12:59:00,32.7,6.1,0.00,West,270,2.2,6.3,32,0.00,,---,0.00,VWS V14.00,2013-02-02 17:59:00,
2013-02-02 13:09:00,32.5,6.6,0.00,NW,312,0.0,5.8,33,0.00,,---,0.00,VWS V14.00,2013-02-02 18:09:00,
2013-02-02 13:19:00,32.4,6.5,0.00,WNW,288,0.0,5.4,33,0.00,,---,0.00,VWS V14.00,2013-02-02 18:19:00,
2013-02-02 13:29:00,32.7,6.8,0.00,NW,323,0.0,5.8,33,0.00,,---,0.00,VWS V14.00,2013-02-02 18:29:00,
2013-02-02 13:39:00,32.7,6.8,0.00,WSW,241,2.2,4.5,33,0.00,,---,0.00,VWS V14.00,2013-02-02 18:39:00,
2013-02-02 13:49:00,31.8,6.0,0.00,SSW,211,2.7,7.6,33,0.00,,---,0.00,VWS V14.00,2013-02-02 18:49:00,
2013-02-02 13:59:00,32.0,6.2,0.00,SW,219,0.0,5.4,33,0.00,,---,0.00,VWS V14.00,2013-02-02 18:59:00,
2013-02-02 14:09:00,31.1,5.4,0.00,SSE,167,0.0,3.1,33,0.00,,---,0.00,VWS V14.00,2013-02-02 19:09:00,
2013-02-02 14:19:00,30.9,6.5,0.00,West,270,0.0,5.8,35,0.00,,---,0.00,VWS V14.00,2013-02-02 19:19:00,
2013-02-02 14:29:00,30.7,7.6,0.00,WSW,242,0.0,5.8,37,0.00,,---,0.00,VWS V14.00,2013-02-02 19:29:00,
2013-02-02 14:39:00,30.9,8.3,0.00,SW,218,0.0,2.7,38,0.00,,---,0.00,VWS V14.00,2013-02-02 19:39:00,
2013-02-02 14:49:00,30.4,8.4,0.00,West,278,0.0,3.1,39,0.00,,---,0.00,VWS V14.00,2013-02-02 19:49:00,
2013-02-02 14:59:00,30.2,8.8,0.00,NW,316,0.0,3.6,40,0.00,,---,0.00,VWS V14.00,2013-02-02 19:59:00,
2013-02-02 15:09:00,30.6,9.1,0.00,West,261,2.2,5.8,40,0.00,,---,0.00,VWS V14.00,2013-02-02 20:09:00,
2013-02-02 15:19:00,30.4,7.8,0.00,WNW,301,0.0,10.1,38,0.00,,---,0.00,VWS V14.00,2013-02-02 20:19:00,
2013-02-02 15:29:00,30.4,9.0,0.00,WNW,291,0.0,2.7,40,0.00,,---,0.00,VWS V14.00,2013-02-02 20:29:00,
2013-02-02 15:39:00,30.6,9.1,0.00,NNW,333,0.0,7.2,40,0.00,,---,0.00,VWS V14.00,2013-02-02 20:39:00,
2013-02-02 15:49:00,30.6,8.6,0.00,WNW,303,0.0,5.4,39,0.00,,---,0.00,VWS V14.00,2013-02-02 20:49:00,
2013-02-02 15:59:00,30.2,8.2,0.00,WSW,252,0.0,2.7,39,0.00,,---,0.00,VWS V14.00,2013-02-02 20:59:00,
2013-02-02 16:09:00,30.2,8.2,0.00,SW,227,0.0,5.4,39,0.04,,---,0.04,VWS V14.00,2013-02-02 21:09:00,
2013-02-02 16:19:00,30.0,8.6,0.00,WNW,301,0.0,6.7,40,0.04,,---,0.04,VWS V14.00,2013-02-02 21:19:00,
2013-02-02 16:29:00,29.5,8.7,0.00,NW,313,0.0,2.7,41,0.04,,---,0.04,VWS V14.00,2013-02-02 21:29:00,
2013-02-02 16:39:00,29.5,8.7,0.00,West,263,0.0,7.6,41,0.04,,---,0.04,VWS V14.00,2013-02-02 21:39:00,
2013-02-02 16:49:00,29.3,8.5,0.00,WSW,247,2.7,6.3,41,0.04,,---,0.04,VWS V14.00,2013-02-02 21:49:00,
2013-02-02 16:59:00,29.1,8.4,0.00,WNW,300,0.0,5.4,41,0.04,,---,0.04,VWS V14.00,2013-02-02 21:59:00,
2013-02-02 17:09:00,28.9,8.7,0.00,WNW,294,0.0,3.1,42,0.04,,---,0.04,VWS V14.00,2013-02-02 22:09:00,
2013-02-02 17:19:00,28.9,8.7,0.00,NW,315,0.0,2.2,42,0.00,,---,0.04,VWS V14.00,2013-02-02 22:19:00,
2013-02-02 17:29:00,28.9,9.3,0.00,WSW,250,0.0,4.9,43,0.00,,---,0.04,VWS V14.00,2013-02-02 22:29:00,
2013-02-02 17:39:00,28.8,9.1,0.00,WNW,299,0.0,2.2,43,0.00,,---,0.04,VWS V14.00,2013-02-02 22:39:00,
2013-02-02 17:49:00,28.6,9.4,0.00,WNW,288,0.0,0.0,44,0.00,,---,0.04,VWS V14.00,2013-02-02 22:49:00,
2013-02-02 17:58:00,28.6,9.4,0.00,WNW,301,0.0,3.6,44,0.00,,---,0.04,VWS V14.00,2013-02-02 22:58:00,
2013-02-02 18:08:00,28.6,9.4,0.00,WNW,296,0.0,2.2,44,0.00,,---,0.04,VWS V14.00,2013-02-02 23:08:00,
2013-02-02 18:18:00,28.6,9.4,0.00,NW,320,0.0,3.1,44,0.00,,---,0.04,VWS V14.00,2013-02-02 23:18:00,
2013-02-02 18:28:00,28.4,9.8,0.00,NW,315,0.0,2.7,45,0.00,,---,0.04,VWS V14.00,2013-02-02 23:28:00,
2013-02-02 18:38:00,28.2,10.1,0.00,NW,310,0.0,2.7,46,0.00,,---,0.04,VWS V14.00,2013-02-02 23:38:00,
2013-02-02 18:48:00,27.9,10.7,0.00,West,279,0.0,0.0,48,0.00,,---,0.04,VWS V14.00,2013-02-02 23:48:00,
2013-02-02 18:58:00,27.9,11.2,0.00,NNW,338,0.0,0.0,49,0.00,,---,0.04,VWS V14.00,2013-02-02 23:58:00,
2013-02-02 19:08:00,27.9,10.7,0.00,WNW,296,0.0,2.7,48,0.00,,---,0.04,VWS V14.00,2013-02-03 00:08:00,
2013-02-02 19:18:00,27.9,10.7,0.00,NW,312,0.0,0.0,48,0.00,,---,0.04,VWS V14.00,2013-02-03 00:18:00,
2013-02-02 19:28:00,27.9,10.7,0.00,NW,307,0.0,0.0,48,0.00,,---,0.04,VWS V14.00,2013-02-03 00:28:00,
2013-02-02 19:38:00,27.9,10.3,0.00,NW,317,0.0,0.0,47,0.00,,---,0.04,VWS V14.00,2013-02-03 00:38:00,
2013-02-02 19:48:00,27.9,9.8,0.00,West,279,0.0,0.0,46,0.00,,---,0.04,VWS V14.00,2013-02-03 00:48:00,
2013-02-02 19:58:00,27.9,9.8,0.00,WNW,296,0.0,2.7,46,0.00,,---,0.04,VWS V14.00,2013-02-03 00:58:00,
2013-02-02 20:08:00,27.9,9.3,0.00,WNW,301,0.0,2.2,45,0.00,,---,0.04,VWS V14.00,2013-02-03 01:08:00,
2013-02-02 20:18:00,27.9,9.3,0.00,WNW,284,0.0,2.2,45,0.00,,---,0.04,VWS V14.00,2013-02-03 01:18:00,
2013-02-02 20:28:00,27.9,8.8,0.00,WNW,300,0.0,3.1,44,0.00,,---,0.04,VWS V14.00,2013-02-03 01:28:00,
2013-02-02 20:39:00,27.7,8.6,0.00,NW,306,0.0,4.0,44,0.00,,---,0.04,VWS V14.00,2013-02-03 01:39:00,
2013-02-02 20:49:00,27.7,8.1,0.00,West,281,0.0,4.5,43,0.00,,---,0.04,VWS V14.00,2013-02-03 01:49:00,
2013-02-02 20:59:00,27.5,7.9,0.00,West,279,0.0,0.0,43,0.00,,---,0.04,VWS V14.00,2013-02-03 01:59:00,
2013-02-02 21:09:00,27.7,8.1,0.00,WNW,303,0.0,0.0,43,0.00,,---,0.04,VWS V14.00,2013-02-03 02:09:00,
2013-02-02 21:19:00,27.5,7.9,0.00,West,280,0.0,2.2,43,0.00,,---,0.04,VWS V14.00,2013-02-03 02:19:00,
2013-02-02 21:29:00,26.8,6.8,0.00,NW,304,0.0,3.6,42,0.00,,---,0.04,VWS V14.00,2013-02-03 02:29:00,
2013-02-02 21:39:00,25.5,5.6,0.00,West,276,0.0,3.6,42,0.00,,---,0.04,VWS V14.00,2013-02-03 02:39:00,
2013-02-02 21:49:00,24.6,4.8,0.00,NW,321,0.0,2.2,42,0.00,,---,0.04,VWS V14.00,2013-02-03 02:49:00,
2013-02-02 21:59:00,23.7,4.0,0.00,NW,310,0.0,2.7,42,0.00,,---,0.04,VWS V14.00,2013-02-03 02:59:00,
2013-02-02 22:09:00,23.2,3.5,0.00,NW,318,0.0,4.0,42,0.00,,---,0.04,VWS V14.00,2013-02-03 03:09:00,
2013-02-02 22:19:00,22.8,3.2,0.00,NW,312,0.0,4.0,42,0.00,,---,0.04,VWS V14.00,2013-02-03 03:19:00,
2013-02-02 22:29:00,22.5,2.8,0.00,NNW,331,0.0,0.0,42,0.00,,---,0.04,VWS V14.00,2013-02-03 03:29:00,
2013-02-02 22:39:00,22.3,2.2,0.00,NW,326,0.0,0.0,41,0.00,,---,0.04,VWS V14.00,2013-02-03 03:39:00,
2013-02-02 22:49:00,21.9,1.8,0.00,NNW,335,0.0,6.3,41,0.00,,---,0.04,VWS V14.00,2013-02-03 03:49:00,
2013-02-02 22:59:00,21.6,1.0,0.00,North,0,0.0,3.6,40,0.00,,---,0.04,VWS V14.00,2013-02-03 03:59:00,
2013-02-02 23:09:00,21.4,0.8,0.00,NNW,328,0.0,4.0,40,0.00,,---,0.04,VWS V14.00,2013-02-03 04:09:00,
2013-02-02 23:19:00,21.0,0.5,0.00,NW,317,0.0,5.4,40,0.00,,---,0.04,VWS V14.00,2013-02-03 04:19:00,
2013-02-02 23:29:00,20.8,-0.8,0.00,NW,319,0.0,3.1,38,0.00,,---,0.04,VWS V14.00,2013-02-03 04:29:00,
2013-02-02 23:39:00,20.7,-1.5,0.00,NNW,331,0.0,5.8,37,0.00,,---,0.04,VWS V14.00,2013-02-03 04:39:00,
2013-02-02 23:49:00,20.5,-1.6,0.00,NNW,338,0.0,5.4,37,0.00,,---,0.04,VWS V14.00,2013-02-03 04:49:00,
2013-02-02 23:59:00,20.3,-1.8,0.00,WNW,293,5.4,5.4,37,0.00,,---,0.00,VWS V14.00,2013-02-03 04:59:00,